Time;durP1;ratioP1;P1;durP2;ratioP2;P2;SDS_P1;SDS_P2;PMS_P1;PMS_P2;Temp;Humidity;BMP_temperature;BMP_pressure;BME280_temperature;BME280_humidity;BME280_pressure;Samples;Min_cycle;Max_cycle;Signal;HPM_P1;HPM_P2
2023/10/10 00:01:07;;;;;;;19.55;10.55;;;;;;;2.52;77.28;98125.03;5090701;28;20404;-59
2023/10/10 00:03:39;;;;;;;7.10;4.22;;;;;;;2.53;76.69;98126.66;5091418;28;20036;-58
2023/10/10 00:06:09;;;;;;;11.48;7.22;;;;;;;2.58;77.37;98129.41;5072526;28;20586;-59
2023/10/10 00:08:44;;;;;;;21.63;11.82;;;;;;;2.65;77.15;98127.53;5090616;28;20055;-60
2023/10/10 00:11:14;;;;;;;12.82;7.47;;;;;;;2.60;77.36;98135.22;5091442;28;20036;-59
2023/10/10 00:13:43;;;;;;;;;;;;;;;2.60;77.45;98126.59;5091537;28;20044;-59
2023/10/10 00:16:12;;;;;;;5.22;3.50;;;;;;;2.59;77.43;98125.78;5091189;28;20376;-59
2023/10/10 00:18:44;;;;;;;6.88;3.58;;;;;;;2.64;77.25;98119.91;5061914;28;20093;-58
2023/10/10 00:21:12;;;;;;;3.72;2.88;;;;;;;2.67;77.26;98127.31;5072886;28;20457;-59
2023/10/10 00:23:42;;;;;;;3.88;2.42;;;;;;;2.70;76.81;98126.88;5091094;28;20128;-59
2023/10/10 00:26:12;;;;;;;2.50;2.30;;;;;;;2.68;77.19;98136.78;5091199;28;20040;-58
2023/10/10 00:28:44;;;;;;;3.55;2.85;;;;;;;2.68;77.42;98140.19;5073256;28;20762;-59
2023/10/10 00:31:18;;;;;;;2.47;2.28;;;;;;;2.72;76.87;98127.47;5091205;28;20044;-60
2023/10/10 00:33:45;;;;;;;3.08;2.70;;;;;;;2.73;77.22;98134.28;5090833;28;20032;-59
2023/10/10 00:36:21;;;;;;;5.22;3.08;;;;;;;2.70;76.93;98139.97;5090851;28;20042;-59
2023/10/10 00:38:49;;;;;;;4.53;2.78;;;;;;;2.71;76.92;98138.97;5072833;28;20047;-59
2023/10/10 00:41:15;;;;;;;4.22;3.20;;;;;;;2.66;77.25;98139.59;5072833;28;20135;-60
2023/10/10 00:43:42;;;;;;;4.78;3.17;;;;;;;2.66;77.89;98136.97;5072544;28;20041;-60
2023/10/10 00:46:11;;;;;;;4.03;3.53;;;;;;;2.69;77.39;98141.78;5091015;28;20040;-59
2023/10/10 00:48:38;;;;;;;6.07;3.92;;;;;;;2.67;77.89;98140.38;5090770;28;20052;-59
2023/10/10 00:51:10;;;;;;;7.35;4.82;;;;;;;2.78;78.11;98138.88;5090923;28;20071;-60
2023/10/10 00:53:39;;;;;;;4.40;3.30;;;;;;;2.98;77.79;98149.94;5056101;28;20048;-59
2023/10/10 00:56:08;;;;;;;4.13;3.40;;;;;;;3.05;77.22;98152.47;5071687;28;20539;-59
2023/10/10 00:58:38;;;;;;;4.18;2.97;;;;;;;3.12;77.53;98150.59;5055617;28;20060;-58
2023/10/10 01:01:12;;;;;;;4.70;3.22;;;;;;;3.15;77.19;98163.25;5056079;28;20074;-59
2023/10/10 01:03:40;;;;;;;3.90;2.92;;;;;;;3.21;77.40;98159.75;5090893;28;20036;-60
2023/10/10 01:06:20;;;;;;;4.75;2.83;;;;;;;3.26;77.40;98161.69;5090810;28;20489;-58
2023/10/10 01:08:55;;;;;;;3.15;2.38;;;;;;;3.31;77.09;98162.63;5072139;28;20040;-59
2023/10/10 01:11:22;;;;;;;3.13;2.63;;;;;;;3.28;77.27;98165.69;5057353;28;20413;-57
2023/10/10 01:13:52;;;;;;;3.75;2.80;;;;;;;3.27;77.60;98171.19;5076512;28;20047;-58
2023/10/10 01:16:23;;;;;;;4.13;2.93;;;;;;;3.21;77.41;98172.03;5076411;28;20055;-60
2023/10/10 01:18:52;;;;;;;3.53;2.42;;;;;;;3.15;77.61;98168.50;5076387;28;20044;-59
2023/10/10 01:21:31;;;;;;;2.53;2.30;;;;;;;3.15;77.37;98171.91;5076211;28;20040;-54
2023/10/10 01:24:05;;;;;;;3.13;2.33;;;;;;;3.18;77.27;98174.09;5075436;28;20119;-59
2023/10/10 01:26:36;;;;;;;3.40;2.70;;;;;;;3.22;77.28;98169.19;5076224;28;20135;-59
2023/10/10 01:31:53;;;;;;;2.65;2.22;;;;;;;3.17;76.84;98177.69;5094688;28;20054;-59
2023/10/10 01:34:43;;;;;;;4.00;2.70;;;;;;;3.18;77.33;98175.91;5094228;28;20513;-59
2023/10/10 01:37:22;;;;;;;3.50;2.63;;;;;;;3.27;77.50;98177.22;5076083;28;20044;-59
2023/10/10 01:40:16;;;;;;;4.05;2.60;;;;;;;3.24;77.59;98174.22;5094565;28;20043;-59
2023/10/10 01:42:59;;;;;;;3.30;2.38;;;;;;;3.31;77.20;98174.94;5079013;28;20420;-59
2023/10/10 01:45:29;;;;;;;3.08;2.30;;;;;;;3.25;76.98;98181.84;5093553;28;20048;-59
2023/10/10 01:48:02;;;;;;;;;;;;;;;3.27;77.03;98184.28;5076404;28;20036;-59
2023/10/10 01:50:30;;;;;;;3.72;2.70;;;;;;;3.22;77.35;98179.69;5075887;28;19931;-59
2023/10/10 01:52:57;;;;;;;3.08;2.72;;;;;;;3.18;77.42;98181.16;5076071;28;20132;-59
2023/10/10 01:55:26;;;;;;;2.55;2.30;;;;;;;3.07;77.49;98187.91;5093887;28;20052;-59
2023/10/10 01:58:01;;;;;;;3.67;2.78;;;;;;;3.07;78.10;98187.09;5059399;28;20044;-59
2023/10/10 02:00:27;;;;;;;4.25;3.20;;;;;;;2.98;78.38;98183.19;5075600;28;20040;-58
2023/10/10 02:02:55;;;;;;;4.45;2.53;;;;;;;3.03;78.53;98185.91;5093656;28;20485;-58
2023/10/10 02:08:22;;;;;;;7.57;3.80;;;;;;;3.02;78.61;98192.19;5058773;28;20036;-59
2023/10/10 02:10:49;;;;;;;5.03;3.88;;;;;;;3.03;79.16;98189.38;5075032;28;20133;-59
2023/10/10 02:13:17;;;;;;;3.53;2.97;;;;;;;3.01;78.85;98196.63;5074566;28;20047;-58
2023/10/10 02:15:43;;;;;;;3.58;2.85;;;;;;;2.99;79.02;98190.81;5075258;28;20459;-59
2023/10/10 02:18:23;;;;;;;4.18;3.15;;;;;;;3.03;79.40;98193.78;5079475;28;20044;-58
2023/10/10 02:20:50;;;;;;;3.67;3.00;;;;;;;3.07;78.90;98200.19;5057657;28;20051;-58
2023/10/10 02:23:24;;;;;;;4.43;2.60;;;;;;;2.94;79.04;98201.94;5072740;28;20166;-59
2023/10/10 02:25:53;;;;;;;5.20;3.00;;;;;;;2.93;79.40;98200.31;5073331;28;20097;-59
2023/10/10 02:30:49;;;;;;;4.28;3.20;;;;;;;2.89;79.49;98207.00;5073338;28;20051;-59
2023/10/10 02:33:24;;;;;;;3.60;2.73;;;;;;;2.85;79.70;98205.03;5054899;28;20041;-60
2023/10/10 02:35:55;;;;;;;3.60;2.80;;;;;;;2.92;79.65;98206.56;5071955;28;20045;-59
2023/10/10 02:38:22;;;;;;;4.00;2.65;;;;;;;2.99;79.06;98209.13;5072616;28;20094;-60
2023/10/10 02:41:12;;;;;;;3.78;2.95;;;;;;;2.90;78.92;98208.59;5054902;28;20106;-59
2023/10/10 02:43:46;;;;;;;3.33;2.65;;;;;;;2.92;79.13;98209.19;5055092;28;20516;-59
2023/10/10 02:46:17;;;;;;;3.22;2.63;;;;;;;2.90;79.11;98218.28;5054808;28;20517;-59
2023/10/10 02:48:44;;;;;;;4.07;2.80;;;;;;;2.90;79.67;98219.06;5054889;28;20059;-58
2023/10/10 02:51:15;;;;;;;3.47;2.92;;;;;;;2.90;79.65;98216.47;5054797;28;20127;-57
2023/10/10 02:53:47;;;;;;;7.22;3.13;;;;;;;2.85;79.57;98221.53;5054682;28;20611;-59
2023/10/10 02:56:17;;;;;;;4.45;2.90;;;;;;;2.71;79.62;98222.69;5055186;28;20048;-59
2023/10/10 02:58:45;;;;;;;7.50;3.85;;;;;;;2.72;80.11;98219.06;5050394;28;20060;-60
2023/10/10 03:01:27;;;;;;;4.80;3.55;;;;;;;2.71;80.08;98218.25;5052599;28;20045;-58
2023/10/10 03:03:54;;;;;;;4.88;3.35;;;;;;;2.70;79.31;98216.63;5051303;28;20036;-59
2023/10/10 03:06:28;;;;;;;5.00;3.67;;;;;;;2.57;79.42;98221.19;5051163;28;20103;-59
2023/10/10 03:09:12;;;;;;;2.80;2.17;;;;;;;2.43;78.61;98236.19;5051271;28;20119;-59
2023/10/10 03:11:53;;;;;;;3.25;2.60;;;;;;;2.33;79.24;98230.66;5050970;28;20041;-59
2023/10/10 03:14:27;;;;;;;5.28;2.80;;;;;;;2.21;79.42;98233.94;5052499;28;20033;-60
2023/10/10 03:16:59;;;;;;;2.85;2.38;;;;;;;2.19;79.73;98238.56;5071146;28;20045;-59
2023/10/10 03:19:28;;;;;;;3.67;2.65;;;;;;;2.08;79.94;98236.63;5070981;28;20059;-60
2023/10/10 03:22:22;;;;;;;3.92;3.20;;;;;;;2.23;80.43;98241.56;5071058;28;20258;-59
2023/10/10 03:25:06;;;;;;;3.80;3.08;;;;;;;2.25;80.13;98242.94;5070617;28;20083;-59
2023/10/10 03:30:33;;;;;;;4.05;2.95;;;;;;;2.14;80.09;98242.81;5031666;28;20512;-59
2023/10/10 03:33:29;;;;;;;6.20;3.47;;;;;;;2.17;80.32;98239.78;5070068;28;20500;-59
2023/10/10 03:35:52;;;;;;;4.25;3.58;;;;;;;2.22;80.76;98248.59;5068754;28;20646;-59
2023/10/10 05:25:07;;;;;;;3.92;2.38;;;;;;;2.55;79.00;98380.19;5056095;28;20418;-59
2023/10/10 05:27:33;;;;;;;3.50;2.80;;;;;;;2.46;79.04;98379.63;5056011;28;20409;-60
2023/10/10 05:29:59;;;;;;;4.05;2.60;;;;;;;2.44;79.68;98385.09;5074284;28;20060;-60
2023/10/10 05:32:30;;;;;;;5.40;2.83;;;;;;;2.47;79.82;98376.81;5074347;28;20055;-59
2023/10/10 05:34:58;;;;;;;3.53;2.60;;;;;;;2.51;79.65;98385.03;5073887;28;20072;-60
2023/10/10 05:37:25;;;;;;;2.85;2.50;;;;;;;2.45;79.00;98393.72;5074228;28;20127;-58
2023/10/10 05:39:56;;;;;;;3.38;2.63;;;;;;;2.45;79.25;98393.72;5056119;28;20185;-61
2023/10/10 05:42:33;;;;;;;3.08;2.78;;;;;;;2.47;79.41;98394.28;5074254;28;20086;-59
2023/10/10 05:45:06;;;;;;;3.55;3.00;;;;;;;2.42;79.68;98389.72;5073994;28;20095;-61
2023/10/10 05:47:31;;;;;;;4.22;3.00;;;;;;;2.55;79.31;98391.44;5074028;28;20089;-60
2023/10/10 05:49:57;;;;;;;3.22;2.58;;;;;;;2.48;78.77;98401.16;5074028;28;20052;-61
2023/10/10 05:52:24;;;;;;;4.18;2.88;;;;;;;2.55;79.11;98403.72;5074749;28;20044;-58
2023/10/10 05:54:51;;;;;;;4.90;2.85;;;;;;;2.55;77.98;98398.50;5036141;28;20041;-58
2023/10/10 05:57:18;;;;;;;3.83;3.03;;;;;;;2.53;78.90;98403.94;5072277;28;20048;-57
2023/10/10 05:59:43;;;;;;;4.40;2.97;;;;;;;2.58;78.25;98411.94;5072019;28;20124;-59
2023/10/10 06:02:11;;;;;;;4.40;2.50;;;;;;;2.58;76.96;98417.19;5055845;28;20489;-61
2023/10/10 06:04:36;;;;;;;3.63;2.80;;;;;;;2.58;77.26;98413.78;5073607;28;20048;-61
2023/10/10 06:07:03;;;;;;;2.47;2.28;;;;;;;2.46;77.14;98406.56;5073943;28;20135;-60
2023/10/10 06:09:33;;;;;;;3.08;2.40;;;;;;;2.57;77.33;98422.66;5055471;28;20548;-58
2023/10/10 06:12:04;;;;;;;;;;;;;;;2.49;77.54;98415.81;5074212;28;20047;-58
2023/10/10 06:14:31;;;;;;;3.78;3.20;;;;;;;2.56;77.35;98421.84;5075674;28;19996;-57
2023/10/10 06:16:57;;;;;;;13.75;3.05;;;;;;;2.55;76.96;98422.84;5075162;28;20048;-60
2023/10/10 06:19:22;;;;;;;3.28;2.58;;;;;;;2.59;77.42;98429.28;5075009;28;20127;-60
2023/10/10 06:21:48;;;;;;;4.68;3.13;;;;;;;2.57;77.15;98418.22;5093120;28;20055;-56
2023/10/10 06:24:14;;;;;;;4.55;3.13;;;;;;;2.56;76.82;98426.25;5093047;28;20409;-59
2023/10/10 06:26:46;;;;;;;4.88;3.00;;;;;;;2.55;76.92;98433.31;5093192;28;20468;-57
2023/10/10 06:29:12;;;;;;;3.83;3.10;;;;;;;2.59;77.56;98433.69;5093010;28;20489;-59
2023/10/10 06:31:43;;;;;;;3.33;2.90;;;;;;;2.64;77.25;98433.88;5093441;28;20051;-58
2023/10/10 06:34:22;;;;;;;;;;;;;;;2.68;77.07;98437.69;5093262;28;20036;-58
2023/10/10 06:36:49;;;;;;;4.70;3.35;;;;;;;2.60;77.48;98440.53;5093228;28;19924;-59
2023/10/10 06:41:42;;;;;;;3.75;2.92;;;;;;;2.66;76.58;98448.34;5074417;28;20089;-59
2023/10/10 06:44:14;;;;;;;3.42;2.92;;;;;;;2.78;76.85;98447.69;5092492;28;20048;-57
2023/10/10 06:46:42;;;;;;;4.63;3.22;;;;;;;2.79;76.71;98449.28;5039363;28;20047;-59
2023/10/10 06:49:11;;;;;;;4.38;3.20;;;;;;;2.61;76.79;98463.06;5091553;28;20103;-59
2023/10/10 06:51:41;;;;;;;5.10;3.25;;;;;;;2.59;77.40;98454.59;5092554;28;20040;-59
2023/10/10 06:54:19;;;;;;;4.80;3.17;;;;;;;2.67;76.99;98452.56;5091862;28;20051;-58
2023/10/10 06:57:04;;;;;;;4.38;3.45;;;;;;;2.66;78.00;98458.03;5090809;28;20391;-59
2023/10/10 06:59:31;;;;;;;4.25;3.50;;;;;;;2.64;76.83;98462.66;5090732;28;20158;-60
2023/10/10 07:02:13;;;;;;;4.97;3.55;;;;;;;2.72;76.63;98465.81;5092932;28;20450;-57
2023/10/10 07:04:40;;;;;;;5.43;3.65;;;;;;;2.68;76.43;98458.63;5091441;28;20121;-58
2023/10/10 07:07:08;;;;;;;6.00;4.32;;;;;;;2.86;77.11;98471.00;5073955;28;20538;-58
2023/10/10 07:09:37;;;;;;;5.10;3.60;;;;;;;2.85;76.19;98470.19;5091739;28;20130;-60
2023/10/10 07:12:14;;;;;;;3.67;2.80;;;;;;;2.76;76.65;98476.69;5073863;28;20040;-60
2023/10/10 07:14:45;;;;;;;4.70;3.25;;;;;;;2.83;76.83;98472.22;5090496;28;20036;-58
2023/10/10 07:17:12;;;;;;;5.40;3.65;;;;;;;2.89;75.94;98471.38;5089784;28;20078;-59
2023/10/10 07:21:04;;;;;;;6.72;4.50;;;;;;;2.86;75.77;98477.03;5091548;28;20036;-58
2023/10/10 07:22:41;;;;;;;4.15;3.28;;;;;;;2.96;76.05;98476.56;5090775;28;20063;-58
2023/10/10 07:25:09;;;;;;;6.32;3.50;;;;;;;3.01;75.45;98476.75;5091163;28;20109;-56
2023/10/10 07:27:39;;;;;;;3.65;2.88;;;;;;;3.06;74.98;98482.16;5091771;28;20040;-58
2023/10/10 07:30:16;;;;;;;;;;;;;;;3.17;74.95;98484.09;5091821;28;20451;-59
2023/10/10 07:32:50;;;;;;;3.78;2.88;;;;;;;3.23;74.36;98476.41;5074717;28;19923;-58
2023/10/10 07:35:21;;;;;;;3.63;3.20;;;;;;;3.17;74.36;98491.16;5051991;28;20470;-59
2023/10/10 07:37:47;;;;;;;8.02;3.90;;;;;;;3.23;75.27;98495.53;5091273;28;20032;-57
2023/10/10 07:42:49;;;;;;;4.07;2.75;;;;;;;3.31;74.01;98497.91;5091461;28;20047;-61
2023/10/10 07:45:18;;;;;;;3.70;2.60;;;;;;;3.22;73.85;98490.53;5091218;28;20055;-60
2023/10/10 07:50:27;;;;;;;3.55;2.75;;;;;;;3.35;73.02;98496.50;5067733;28;20123;-59
2023/10/10 07:52:54;;;;;;;4.05;2.90;;;;;;;3.57;73.48;98507.41;5091665;28;20056;-58
2023/10/10 07:55:22;;;;;;;3.95;3.30;;;;;;;3.54;72.68;98502.59;5091270;28;20446;-60
2023/10/10 07:57:59;;;;;;;7.40;3.70;;;;;;;3.72;72.29;98511.53;5091520;28;20044;-59
2023/10/10 08:00:35;;;;;;;3.67;2.78;;;;;;;3.73;71.70;98515.75;5057984;28;20417;-60
2023/10/10 08:03:07;;;;;;;3.50;2.92;;;;;;;3.64;71.97;98518.63;5091490;28;20046;-58
2023/10/10 08:05:33;;;;;;;3.35;2.50;;;;;;;3.52;72.15;98519.53;5091234;28;20070;-59
2023/10/10 08:08:05;;;;;;;6.80;4.05;;;;;;;3.67;72.85;98520.00;5091455;28;20052;-58
2023/10/10 08:10:38;;;;;;;3.90;3.40;;;;;;;3.70;72.22;98526.66;5073223;28;20132;-59
2023/10/10 08:13:10;;;;;;;5.10;4.50;;;;;;;3.77;72.24;98519.56;5091365;28;20044;-60
2023/10/10 08:15:50;;;;;;;7.20;4.57;;;;;;;3.82;71.52;98528.38;5078252;28;20445;-59
2023/10/10 08:23:29;;;;;;;5.07;3.30;;;;;;;3.71;71.88;98536.94;5091343;28;20051;-59
2023/10/10 08:25:56;;;;;;;4.43;3.28;;;;;;;3.76;71.11;98525.78;5091082;28;20036;-60
2023/10/10 08:28:23;;;;;;;4.15;3.20;;;;;;;3.87;72.02;98536.38;5091028;28;20036;-60
2023/10/10 08:30:50;;;;;;;3.35;2.40;;;;;;;3.79;71.16;98528.78;5090926;28;20056;-61
2023/10/10 08:33:15;;;;;;;2.92;2.30;;;;;;;3.80;70.94;98535.66;5090839;28;20410;-60
2023/10/10 08:35:42;;;;;;;5.90;3.28;;;;;;;3.80;71.50;98535.66;5072523;28;20048;-59
2023/10/10 08:38:13;;;;;;;2.97;2.45;;;;;;;3.92;70.67;98554.09;5090218;28;20497;-61
2023/10/10 08:40:40;;;;;;;4.28;2.80;;;;;;;3.98;70.84;98549.84;5071832;28;20046;-61
2023/10/10 08:43:09;;;;;;;6.53;3.10;;;;;;;4.09;71.08;98546.50;5070675;28;20044;-58
2023/10/10 08:45:40;;;;;;;6.68;2.42;;;;;;;4.01;70.22;98550.19;5070795;28;20493;-60
2023/10/10 08:48:12;;;;;;;4.80;3.25;;;;;;;4.00;69.93;98540.75;5090135;28;20541;-61
2023/10/10 08:50:42;;;;;;;3.45;2.85;;;;;;;4.14;69.10;98564.22;5072816;28;20055;-59
2023/10/10 08:53:12;;;;;;;3.88;2.40;;;;;;;4.03;68.18;98557.84;5090827;28;20044;-59
2023/10/10 08:55:42;;;;;;;5.32;2.72;;;;;;;4.11;68.28;98578.56;5072507;28;20111;-57
2023/10/10 08:58:08;;;;;;;5.72;2.80;;;;;;;4.23;68.38;98568.94;5090559;28;20130;-60
2023/10/10 09:00:35;;;;;;;2.80;2.47;;;;;;;4.23;68.45;98566.31;5090800;28;20048;-59
2023/10/10 09:03:01;;;;;;;4.32;2.92;;;;;;;4.16;69.70;98562.97;5091040;28;20089;-60
2023/10/10 09:05:28;;;;;;;4.47;2.60;;;;;;;4.06;69.40;98565.31;5090753;28;20048;-60
2023/10/10 09:07:55;;;;;;;4.40;2.75;;;;;;;3.97;69.13;98577.88;5090711;28;20413;-61
2023/10/10 09:10:28;;;;;;;2.70;2.08;;;;;;;3.94;68.70;98573.06;5090484;28;20115;-60
2023/10/10 09:13:01;;;;;;;3.78;2.00;;;;;;;3.86;67.79;98583.81;5072589;28;20044;-60
2023/10/10 09:15:30;;;;;;;2.60;2.10;;;;;;;3.75;67.64;98576.63;5079176;28;20071;-60
2023/10/10 09:18:31;;;;;;;2.80;2.17;;;;;;;4.00;67.74;98592.34;5058093;28;20042;-61
2023/10/10 09:21:18;;;;;;;4.05;2.40;;;;;;;4.40;67.67;98582.31;5008181;28;20052;-60
2023/10/10 09:23:52;;;;;;;3.05;2.47;;;;;;;4.46;66.74;98580.66;5084737;28;20071;-60
2023/10/10 09:29:00;;;;;;;2.55;2.30;;;;;;;4.60;65.76;98576.88;5090747;28;20051;-59
2023/10/10 09:31:32;;;;;;;3.15;2.45;;;;;;;4.62;65.79;98585.34;5090699;28;20051;-60
2023/10/10 09:34:03;;;;;;;3.60;2.45;;;;;;;4.78;65.52;98584.75;5092288;28;20558;-59
2023/10/10 09:36:29;;;;;;;3.78;2.92;;;;;;;4.82;65.08;98586.94;5076874;28;20564;-59
2023/10/10 09:39:26;;;;;;;3.20;2.60;;;;;;;4.75;65.67;98597.53;5093875;28;20130;-61
2023/10/10 09:49:46;;;;;;;2.53;2.20;;;;;;;4.55;66.35;98592.47;5093295;28;20108;-61
2023/10/10 09:58:00;;;;;;;3.67;2.47;;;;;;;4.66;65.63;98602.25;5093620;28;20523;-59
2023/10/10 10:05:58;;;;;;;5.15;2.67;;;;;;;4.89;66.53;98609.47;5075202;28;20408;-61
2023/10/10 10:08:38;;;;;;;2.90;2.15;;;;;;;4.79;65.79;98611.81;5075449;28;20040;-61
2023/10/10 10:11:11;;;;;;;3.53;2.10;;;;;;;4.75;66.07;98616.69;5076218;28;20090;-60
2023/10/10 10:13:58;;;;;;;3.40;2.85;;;;;;;4.90;66.85;98611.06;5093689;28;20044;-60
2023/10/10 10:16:38;;;;;;;5.40;3.22;;;;;;;4.92;66.46;98621.38;5055885;28;20563;-60
2023/10/10 10:19:19;;;;;;;4.25;2.17;;;;;;;4.80;66.60;98616.06;5055263;28;20425;-60
2023/10/10 10:21:52;;;;;;;4.65;2.70;;;;;;;4.75;64.78;98616.69;5093163;28;20048;-59
2023/10/10 10:24:31;;;;;;;3.47;2.50;;;;;;;4.56;65.49;98615.09;5075802;28;20047;-60
2023/10/10 10:27:24;;;;;;;2.17;1.98;;;;;;;4.48;64.83;98605.66;5093502;28;20043;-60
2023/10/10 10:32:54;;;;;;;3.20;2.00;;;;;;;4.96;63.24;98612.03;5092978;28;20044;-60
2023/10/10 10:35:37;;;;;;;2.88;1.90;;;;;;;5.15;63.61;98621.50;5075889;28;20403;-60
2023/10/10 10:38:06;;;;;;;2.45;1.98;;;;;;;5.26;63.17;98619.16;5058157;28;20520;-61
2023/10/10 10:43:15;;;;;;;2.28;2.08;;;;;;;5.05;63.67;98625.66;5092112;28;20086;-60
2023/10/10 10:45:44;;;;;;;2.75;1.70;;;;;;;4.67;66.33;98655.56;5091976;28;20036;-61
2023/10/10 10:48:31;;;;;;;2.05;1.85;;;;;;;4.43;69.81;98657.19;5075305;28;20051;-62
2023/10/10 10:51:01;;;;;;;2.38;2.03;;;;;;;4.43;70.52;98646.69;5074155;28;20040;-62
2023/10/10 10:53:35;;;;;;;3.20;2.35;;;;;;;4.28;69.24;98639.16;5092686;28;20048;-61
2023/10/10 11:01:27;;;;;;;2.17;1.88;;;;;;;4.16;70.63;98662.66;5091557;28;20036;-60
2023/10/10 11:03:55;;;;;;;2.75;1.80;;;;;;;3.89;72.99;98662.03;5092864;28;20176;-61
2023/10/10 11:06:24;;;;;;;1.83;1.70;;;;;;;3.73;71.33;98660.72;5092990;28;20048;-61
2023/10/10 11:14:00;;;;;;;3.47;2.60;;;;;;;3.54;73.40;98667.66;5091400;28;20532;-60
2023/10/10 11:16:39;;;;;;;3.45;2.90;;;;;;;3.68;73.90;98670.22;5071566;28;20094;-60
2023/10/10 11:19:18;;;;;;;2.97;2.50;;;;;;;3.69;73.22;98674.47;5070595;28;20535;-59
2023/10/10 11:21:48;;;;;;;3.65;2.40;;;;;;;3.73;72.27;98673.00;5092361;28;20051;-60
2023/10/10 11:24:23;;;;;;;3.88;2.80;;;;;;;3.69;72.93;98684.94;5090585;28;20131;-60
2023/10/10 11:29:45;;;;;;;3.65;3.03;;;;;;;3.77;71.04;98680.25;5090230;28;20043;-60
2023/10/10 11:32:16;;;;;;;4.95;3.47;;;;;;;3.89;70.84;98674.34;5091859;28;20466;-61
2023/10/10 11:34:45;;;;;;;3.00;2.53;;;;;;;4.00;70.94;98682.34;5091348;28;20059;-60
2023/10/10 11:37:25;;;;;;;3.53;2.10;;;;;;;3.71;69.99;98688.16;5091329;28;20136;-60
2023/10/10 11:40:01;;;;;;;4.53;2.20;;;;;;;3.66;70.41;98701.09;5073080;28;20047;-60
2023/10/10 11:42:38;;;;;;;2.67;1.90;;;;;;;3.58;70.61;98700.31;5073219;28;20575;-60
2023/10/10 11:45:06;;;;;;;2.50;1.90;;;;;;;3.69;68.94;98705.91;5091235;28;20072;-61
2023/10/10 11:47:51;;;;;;;3.15;2.13;;;;;;;3.65;68.69;98702.91;5091255;28;20032;-59
2023/10/10 11:50:21;;;;;;;4.60;2.50;;;;;;;3.71;69.06;98711.75;5090953;28;20077;-63
2023/10/10 11:52:52;;;;;;;3.47;2.22;;;;;;;3.70;68.84;98712.75;5091315;28;20117;-62
2023/10/10 11:55:21;;;;;;;3.50;2.40;;;;;;;3.80;68.47;98715.75;5088032;28;20519;-60
2023/10/10 11:57:51;;;;;;;2.58;2.30;;;;;;;3.94;68.69;98716.44;5070690;28;20045;-61
2023/10/10 12:00:28;;;;;;;2.65;2.30;;;;;;;3.87;69.47;98730.41;5081394;28;20048;-62
2023/10/10 12:02:58;;;;;;;2.35;1.70;;;;;;;3.92;70.40;98729.00;5091415;28;20036;-62
2023/10/10 12:08:39;;;;;;;4.05;3.20;;;;;;;4.15;71.35;98733.69;5091176;28;20157;-58
2023/10/10 12:10:52;;;;;;;4.20;2.42;;;;;;;4.32;69.94;98740.03;5059976;28;20197;-61
2023/10/10 12:16:17;;;;;;;2.47;2.13;;;;;;;3.86;72.02;98755.03;5070158;28;20045;-59
2023/10/10 12:18:49;;;;;;;5.57;2.55;;;;;;;3.80;73.24;98739.34;5071190;28;20040;-60
2023/10/10 12:21:23;;;;;;;2.83;2.45;;;;;;;3.83;73.38;98755.44;5015580;28;20032;-61
2023/10/10 12:23:56;;;;;;;2.70;2.38;;;;;;;3.80;73.68;98753.25;5091073;28;20434;-60
2023/10/10 12:26:23;;;;;;;4.40;2.55;;;;;;;3.80;74.84;98753.25;5090414;28;20082;-60
2023/10/10 12:28:54;;;;;;;3.58;2.67;;;;;;;3.67;75.01;98748.03;5055774;28;20043;-61
2023/10/10 12:31:22;;;;;;;3.47;2.47;;;;;;;3.73;75.74;98751.66;5054803;28;20052;-62
2023/10/10 12:33:49;;;;;;;2.88;2.55;;;;;;;3.67;75.37;98753.28;5089982;28;20031;-62
2023/10/10 12:36:16;;;;;;;3.28;2.63;;;;;;;3.76;75.62;98757.28;5090610;28;20470;-60
2023/10/10 12:38:42;;;;;;;3.50;2.80;;;;;;;3.85;75.44;98753.44;5090501;28;20110;-60
2023/10/10 12:41:15;;;;;;;7.00;3.33;;;;;;;3.89;75.53;98756.44;5089740;28;20052;-60
2023/10/10 12:43:41;;;;;;;5.03;3.00;;;;;;;3.99;74.29;98761.22;5091090;28;20043;-61
2023/10/10 12:46:09;;;;;;;6.28;3.28;;;;;;;4.24;74.05;98764.72;5090906;28;20059;-61
2023/10/10 12:48:41;;;;;;;4.22;3.10;;;;;;;4.43;74.14;98764.78;5091105;28;20040;-61
2023/10/10 12:51:10;;;;;;;5.13;2.83;;;;;;;4.40;72.82;98766.00;5090907;28;20139;-61
2023/10/10 12:53:40;;;;;;;4.03;2.80;;;;;;;4.42;72.26;98768.44;5090863;28;20040;-58
2023/10/10 12:56:11;;;;;;;5.50;2.85;;;;;;;4.36;73.24;98782.41;5066383;28;20069;-60
2023/10/10 12:58:42;;;;;;;4.50;4.00;;;;;;;4.30;71.78;98776.97;5070554;28;20051;-59
2023/10/10 13:01:12;;;;;;;3.67;3.00;;;;;;;4.24;71.81;98785.69;5070893;28;20091;-59
2023/10/10 13:03:38;;;;;;;4.30;2.28;;;;;;;4.20;71.46;98787.13;5070612;28;20123;-60
2023/10/10 13:06:04;;;;;;;3.28;2.08;;;;;;;4.13;71.01;98785.56;5052236;28;20068;-59
2023/10/10 13:11:18;;;;;;;4.07;2.25;;;;;;;4.15;69.95;98786.13;5074459;28;20052;-58
2023/10/10 13:13:48;;;;;;;2.40;1.95;;;;;;;4.14;68.88;98800.28;5091514;28;20043;-61
2023/10/10 13:16:51;;;;;;;;;;;;;;;4.08;67.09;98797.47;5094590;28;20036;-60
2023/10/10 13:19:12;;;;;;;2.55;1.83;;;;;;;3.95;66.00;98807.25;5093730;28;19919;-61
2023/10/10 13:21:40;;;;;;;3.97;2.25;;;;;;;3.83;67.05;98812.31;5093847;28;20039;-60
2023/10/10 13:24:15;;;;;;;4.97;2.17;;;;;;;3.90;68.19;98804.44;5093433;28;20036;-59
2023/10/10 13:26:45;;;;;;;2.80;2.10;;;;;;;3.93;67.61;98814.50;5091377;28;20051;-60
2023/10/10 13:29:11;;;;;;;2.15;1.80;;;;;;;3.89;67.18;98819.34;5067242;28;20036;-60
2023/10/10 13:31:38;;;;;;;3.05;1.88;;;;;;;3.74;67.20;98821.44;5082347;28;20040;-57
2023/10/10 13:34:04;;;;;;;2.25;1.80;;;;;;;3.74;67.48;98830.09;5093881;28;20075;-57
2023/10/10 13:36:32;;;;;;;5.40;2.22;;;;;;;3.65;67.34;98826.09;5094518;28;20493;-58
2023/10/10 13:38:59;;;;;;;2.20;1.83;;;;;;;3.64;68.41;98824.47;5094194;28;20044;-56
2023/10/10 13:41:29;;;;;;;3.40;2.03;;;;;;;3.71;68.06;98833.13;5093450;28;20513;-60
2023/10/10 13:43:59;;;;;;;4.10;2.30;;;;;;;3.70;68.11;98835.94;5076240;28;20040;-60
2023/10/10 13:46:26;;;;;;;;;;;;;;;3.60;68.03;98842.44;5076129;28;20044;-59
2023/10/10 13:48:52;;;;;;;2.20;1.90;;;;;;;3.43;68.30;98843.88;5093686;28;20011;-57
2023/10/10 13:51:18;;;;;;;4.47;2.53;;;;;;;3.33;69.64;98843.50;5093797;28;20036;-58
2023/10/10 13:53:45;;;;;;;8.52;2.88;;;;;;;3.32;69.80;98847.09;5093714;28;20036;-60
2023/10/10 13:56:12;;;;;;;1.95;1.75;;;;;;;3.29;69.68;98848.31;5068327;28;20041;-61
2023/10/10 13:58:46;;;;;;;2.88;1.98;;;;;;;3.33;69.58;98856.59;5073002;28;20048;-60
2023/10/10 14:03:45;;;;;;;2.00;1.80;;;;;;;3.46;69.17;98861.81;5073203;28;20566;-56
2023/10/10 14:06:22;;;;;;;4.00;2.58;;;;;;;3.45;69.91;98860.19;5084331;28;20146;-59
2023/10/10 14:08:48;;;;;;;3.92;2.38;;;;;;;3.30;70.36;98870.09;5091796;28;20040;-59
2023/10/10 14:11:21;;;;;;;3.17;2.40;;;;;;;3.13;71.34;98867.88;5075186;28;20044;-59
2023/10/10 14:13:54;;;;;;;4.30;2.50;;;;;;;3.03;71.69;98866.66;5093008;28;20044;-59
2023/10/10 14:16:21;;;;;;;6.20;3.08;;;;;;;2.92;72.43;98881.97;5092962;28;20071;-59
2023/10/10 14:18:50;;;;;;;3.78;2.55;;;;;;;2.89;72.67;98885.00;5092775;28;20460;-58
2023/10/10 14:21:27;;;;;;;3.95;2.58;;;;;;;2.82;73.02;98883.34;5074095;28;20526;-61
2023/10/10 14:24:13;;;;;;;3.42;2.63;;;;;;;2.79;72.52;98887.19;5075352;28;20135;-60
2023/10/10 14:26:43;;;;;;;6.65;2.42;;;;;;;2.65;73.34;98896.84;5092191;28;20539;-58
2023/10/10 14:29:13;;;;;;;3.70;2.83;;;;;;;2.64;73.85;98904.88;5093068;28;20044;-59
2023/10/10 14:31:42;;;;;;;4.28;2.15;;;;;;;2.57;74.06;98904.84;5093052;28;20072;-58
2023/10/10 14:34:15;;;;;;;3.42;2.30;;;;;;;2.47;74.60;98910.47;5092950;28;20531;-59
2023/10/10 14:36:41;;;;;;;3.30;2.17;;;;;;;2.38;75.51;98906.41;5092698;28;20532;-60
2023/10/10 14:39:28;;;;;;;2.95;2.33;;;;;;;2.35;76.02;98914.63;5093073;28;20080;-58
2023/10/10 14:41:57;;;;;;;4.63;2.70;;;;;;;2.37;76.39;98915.25;5093449;28;20377;-59
2023/10/10 14:44:28;;;;;;;4.03;2.45;;;;;;;2.42;76.01;98925.94;5074622;28;20458;-58
2023/10/10 14:46:54;;;;;;;3.10;2.40;;;;;;;2.42;76.25;98923.31;5075277;28;20048;-60
2023/10/10 14:49:29;;;;;;;6.07;3.15;;;;;;;2.45;76.43;98933.41;5092660;28;20152;-59
2023/10/10 14:52:06;;;;;;;4.10;2.38;;;;;;;2.43;76.12;98937.22;5093142;28;20043;-59
2023/10/10 14:54:42;;;;;;;3.00;2.33;;;;;;;2.45;76.17;98938.63;5092177;28;20044;-57
2023/10/10 14:57:21;;;;;;;6.53;3.30;;;;;;;2.48;76.51;98946.09;5073445;28;20052;-58
2023/10/10 14:59:48;;;;;;;3.78;2.95;;;;;;;2.38;76.47;98945.66;5074448;28;20513;-57
2023/10/10 15:02:16;;;;;;;3.47;2.70;;;;;;;2.32;76.85;98956.88;5092513;28;20040;-57
2023/10/10 15:04:42;;;;;;;3.97;2.58;;;;;;;2.29;76.92;98957.25;5091219;28;20325;-58
2023/10/10 15:07:08;;;;;;;4.32;2.47;;;;;;;2.38;76.58;98961.34;5091753;28;20047;-57